sensor_id;sensor_type;location;lat;lon;timestamp;pressure;altitude;pressure_sealevel;temperature;humidity
40372;BME280;28564;53.346;-6.554;2022-08-19T00:00:33;100356.72;;;18.40;40.37
40372;BME280;28564;53.346;-6.554;2022-08-19T00:03:00;100354.65;;;18.32;40.48
40372;BME280;28564;53.346;-6.554;2022-08-19T00:05:27;100350.52;;;18.19;40.65
40372;BME280;28564;53.346;-6.554;2022-08-19T00:07:54;100353.82;;;18.14;40.89
40372;BME280;28564;53.346;-6.554;2022-08-19T00:10:21;100356.14;;;18.15;40.90
40372;BME280;28564;53.346;-6.554;2022-08-19T00:13:03;100358.98;;;18.40;40.86
40372;BME280;28564;53.346;-6.554;2022-08-19T00:15:31;100362.08;;;18.14;40.86
40372;BME280;28564;53.346;-6.554;2022-08-19T00:17:58;100362.70;;;18.16;40.85
40372;BME280;28564;53.346;-6.554;2022-08-19T00:20:25;100361.54;;;18.11;40.98
40372;BME280;28564;53.346;-6.554;2022-08-19T00:22:53;100361.67;;;17.98;41.14
40372;BME280;28564;53.346;-6.554;2022-08-19T00:25:25;100365.62;;;17.91;41.24
40372;BME280;28564;53.346;-6.554;2022-08-19T00:27:52;100365.96;;;17.84;41.35
40372;BME280;28564;53.346;-6.554;2022-08-19T00:30:19;100368.24;;;17.74;41.61
40372;BME280;28564;53.346;-6.554;2022-08-19T00:32:46;100366.43;;;17.97;41.67
40372;BME280;28564;53.346;-6.554;2022-08-19T00:35:13;100369.06;;;17.66;41.83
40372;BME280;28564;53.346;-6.554;2022-08-19T00:37:40;100373.61;;;17.69;41.84
40372;BME280;28564;53.346;-6.554;2022-08-19T00:40:08;100375.37;;;17.66;41.92
40372;BME280;28564;53.346;-6.554;2022-08-19T00:42:36;100380.12;;;17.72;41.92
40372;BME280;28564;53.346;-6.554;2022-08-19T00:45:11;100382.37;;;17.68;41.99
40372;BME280;28564;53.346;-6.554;2022-08-19T00:47:39;100381.51;;;17.68;42.18
40372;BME280;28564;53.346;-6.554;2022-08-19T00:50:08;100386.56;;;18.25;42.33
40372;BME280;28564;53.346;-6.554;2022-08-19T00:52:39;100388.75;;;18.11;42.27
40372;BME280;28564;53.346;-6.554;2022-08-19T00:55:08;100389.45;;;17.85;42.33
40372;BME280;28564;53.346;-6.554;2022-08-19T00:57:38;100386.16;;;17.90;42.43
40372;BME280;28564;53.346;-6.554;2022-08-19T01:00:11;100385.42;;;17.96;42.39
40372;BME280;28564;53.346;-6.554;2022-08-19T01:02:39;100382.00;;;18.03;42.40
40372;BME280;28564;53.346;-6.554;2022-08-19T01:05:10;100378.07;;;17.92;42.32
40372;BME280;28564;53.346;-6.554;2022-08-19T01:07:39;100378.82;;;18.18;42.28
40372;BME280;28564;53.346;-6.554;2022-08-19T01:10:10;100381.99;;;18.21;42.30
40372;BME280;28564;53.346;-6.554;2022-08-19T01:12:38;100373.63;;;18.18;42.31
40372;BME280;28564;53.346;-6.554;2022-08-19T01:15:09;100373.53;;;18.11;42.35
40372;BME280;28564;53.346;-6.554;2022-08-19T01:17:39;100374.61;;;17.98;42.53
40372;BME280;28564;53.346;-6.554;2022-08-19T01:20:10;100376.28;;;17.89;42.77
40372;BME280;28564;53.346;-6.554;2022-08-19T01:22:43;100375.88;;;18.00;43.22
40372;BME280;28564;53.346;-6.554;2022-08-19T01:25:13;100377.76;;;18.02;43.41
40372;BME280;28564;53.346;-6.554;2022-08-19T01:27:44;100377.36;;;17.86;43.37
40372;BME280;28564;53.346;-6.554;2022-08-19T01:30:14;100380.66;;;17.90;43.27
40372;BME280;28564;53.346;-6.554;2022-08-19T01:32:42;100384.46;;;17.96;43.27
40372;BME280;28564;53.346;-6.554;2022-08-19T01:35:10;100382.20;;;18.05;43.25
40372;BME280;28564;53.346;-6.554;2022-08-19T01:37:47;100385.46;;;18.03;43.37
40372;BME280;28564;53.346;-6.554;2022-08-19T01:40:16;100385.03;;;18.37;43.39
40372;BME280;28564;53.346;-6.554;2022-08-19T01:42:43;100387.34;;;18.23;43.32
40372;BME280;28564;53.346;-6.554;2022-08-19T01:45:11;100388.40;;;18.50;43.42
40372;BME280;28564;53.346;-6.554;2022-08-19T01:47:38;100391.45;;;18.30;43.40
40372;BME280;28564;53.346;-6.554;2022-08-19T01:50:07;100396.71;;;18.33;43.28
40372;BME280;28564;53.346;-6.554;2022-08-19T01:52:36;100397.16;;;18.37;42.97
40372;BME280;28564;53.346;-6.554;2022-08-19T01:55:05;100396.40;;;18.29;42.98
40372;BME280;28564;53.346;-6.554;2022-08-19T01:57:33;100397.65;;;18.19;43.10
40372;BME280;28564;53.346;-6.554;2022-08-19T02:00:02;100394.32;;;18.12;43.32
40372;BME280;28564;53.346;-6.554;2022-08-19T02:02:29;100391.66;;;18.14;43.31
40372;BME280;28564;53.346;-6.554;2022-08-19T02:04:56;100387.33;;;18.13;43.22
40372;BME280;28564;53.346;-6.554;2022-08-19T02:07:24;100390.36;;;18.11;42.99
40372;BME280;28564;53.346;-6.554;2022-08-19T02:09:51;100391.20;;;17.92;43.25
40372;BME280;28564;53.346;-6.554;2022-08-19T02:12:18;100391.27;;;17.80;43.52
40372;BME280;28564;53.346;-6.554;2022-08-19T02:14:45;100387.28;;;17.63;43.85
40372;BME280;28564;53.346;-6.554;2022-08-19T02:17:12;100390.03;;;18.05;44.01
40372;BME280;28564;53.346;-6.554;2022-08-19T02:19:39;100392.81;;;18.00;44.27
40372;BME280;28564;53.346;-6.554;2022-08-19T02:22:07;100394.35;;;18.05;44.44
40372;BME280;28564;53.346;-6.554;2022-08-19T02:24:39;100402.29;;;17.96;44.35
40372;BME280;28564;53.346;-6.554;2022-08-19T02:27:06;100404.07;;;17.92;44.51
40372;BME280;28564;53.346;-6.554;2022-08-19T02:29:33;100404.19;;;17.70;44.54
40372;BME280;28564;53.346;-6.554;2022-08-19T02:32:00;100402.06;;;17.98;44.67
40372;BME280;28564;53.346;-6.554;2022-08-19T02:34:28;100398.05;;;17.81;44.69
40372;BME280;28564;53.346;-6.554;2022-08-19T02:36:55;100395.08;;;18.15;44.60
40372;BME280;28564;53.346;-6.554;2022-08-19T02:39:22;100391.67;;;17.98;44.39
40372;BME280;28564;53.346;-6.554;2022-08-19T02:41:49;100391.98;;;17.95;44.34
40372;BME280;28564;53.346;-6.554;2022-08-19T02:44:16;100389.90;;;18.36;44.33
40372;BME280;28564;53.346;-6.554;2022-08-19T02:46:45;100392.96;;;17.79;44.30
40372;BME280;28564;53.346;-6.554;2022-08-19T02:49:19;100387.33;;;17.97;44.31
40372;BME280;28564;53.346;-6.554;2022-08-19T02:51:46;100386.78;;;18.03;44.45
40372;BME280;28564;53.346;-6.554;2022-08-19T02:54:19;100389.55;;;17.68;44.61
40372;BME280;28564;53.346;-6.554;2022-08-19T02:56:48;100393.50;;;17.78;44.76
40372;BME280;28564;53.346;-6.554;2022-08-19T02:59:15;100394.26;;;17.68;44.95
40372;BME280;28564;53.346;-6.554;2022-08-19T03:01:42;100391.83;;;17.08;45.03
40372;BME280;28564;53.346;-6.554;2022-08-19T03:04:12;100386.96;;;17.49;45.16
40372;BME280;28564;53.346;-6.554;2022-08-19T03:06:41;100387.32;;;17.43;45.33
40372;BME280;28564;53.346;-6.554;2022-08-19T03:09:09;100386.04;;;17.40;45.59
40372;BME280;28564;53.346;-6.554;2022-08-19T03:11:37;100389.96;;;17.43;45.74
40372;BME280;28564;53.346;-6.554;2022-08-19T03:14:06;100389.55;;;17.44;45.53
40372;BME280;28564;53.346;-6.554;2022-08-19T03:16:43;100394.36;;;17.39;45.59
40372;BME280;28564;53.346;-6.554;2022-08-19T03:19:10;100396.10;;;17.14;45.77
40372;BME280;28564;53.346;-6.554;2022-08-19T03:21:38;100398.65;;;17.36;45.66
40372;BME280;28564;53.346;-6.554;2022-08-19T03:24:07;100398.20;;;17.08;45.76
40372;BME280;28564;53.346;-6.554;2022-08-19T03:26:39;100402.43;;;17.46;45.98
40372;BME280;28564;53.346;-6.554;2022-08-19T03:29:08;100405.34;;;17.23;46.24
40372;BME280;28564;53.346;-6.554;2022-08-19T03:31:36;100404.65;;;17.29;46.35
40372;BME280;28564;53.346;-6.554;2022-08-19T03:34:04;100406.34;;;17.60;46.36
40372;BME280;28564;53.346;-6.554;2022-08-19T03:36:32;100408.69;;;17.51;46.22
40372;BME280;28564;53.346;-6.554;2022-08-19T03:39:00;100409.29;;;17.65;46.03
40372;BME280;28564;53.346;-6.554;2022-08-19T03:41:29;100406.64;;;17.25;45.89
40372;BME280;28564;53.346;-6.554;2022-08-19T03:43:58;100404.99;;;17.82;45.66
40372;BME280;28564;53.346;-6.554;2022-08-19T03:46:28;100404.92;;;17.84;45.58
40372;BME280;28564;53.346;-6.554;2022-08-19T03:48:58;100407.89;;;17.83;45.69
40372;BME280;28564;53.346;-6.554;2022-08-19T03:51:27;100406.58;;;17.67;45.68
40372;BME280;28564;53.346;-6.554;2022-08-19T03:53:55;100399.92;;;17.94;45.50
40372;BME280;28564;53.346;-6.554;2022-08-19T03:56:24;100397.47;;;17.46;45.49
40372;BME280;28564;53.346;-6.554;2022-08-19T03:58:52;100406.85;;;17.93;45.63
40372;BME280;28564;53.346;-6.554;2022-08-19T04:01:22;100398.80;;;17.64;45.73
40372;BME280;28564;53.346;-6.554;2022-08-19T04:03:50;100403.64;;;17.84;45.99
40372;BME280;28564;53.346;-6.554;2022-08-19T04:06:19;100404.62;;;17.88;46.04
40372;BME280;28564;53.346;-6.554;2022-08-19T04:08:48;100404.25;;;17.44;45.93
40372;BME280;28564;53.346;-6.554;2022-08-19T04:11:17;100401.44;;;17.74;45.81
40372;BME280;28564;53.346;-6.554;2022-08-19T04:13:45;100402.66;;;17.47;45.73
40372;BME280;28564;53.346;-6.554;2022-08-19T04:16:13;100400.82;;;17.44;45.60
40372;BME280;28564;53.346;-6.554;2022-08-19T04:18:41;100402.47;;;17.64;45.42
40372;BME280;28564;53.346;-6.554;2022-08-19T04:21:15;100401.88;;;17.78;45.42
40372;BME280;28564;53.346;-6.554;2022-08-19T04:23:43;100400.03;;;17.58;45.61
40372;BME280;28564;53.346;-6.554;2022-08-19T04:26:13;100405.94;;;17.21;45.83
40372;BME280;28564;53.346;-6.554;2022-08-19T04:28:40;100408.26;;;17.32;45.98
40372;BME280;28564;53.346;-6.554;2022-08-19T04:31:13;100407.56;;;17.01;46.15
40372;BME280;28564;53.346;-6.554;2022-08-19T04:33:40;100409.21;;;17.08;46.44
40372;BME280;28564;53.346;-6.554;2022-08-19T04:36:10;100407.43;;;16.72;46.75
40372;BME280;28564;53.346;-6.554;2022-08-19T04:38:42;100406.24;;;17.11;46.96
40372;BME280;28564;53.346;-6.554;2022-08-19T04:41:09;100410.66;;;16.89;47.23
40372;BME280;28564;53.346;-6.554;2022-08-19T04:43:38;100408.56;;;16.94;47.19
40372;BME280;28564;53.346;-6.554;2022-08-19T04:46:06;100403.72;;;17.01;47.08
40372;BME280;28564;53.346;-6.554;2022-08-19T04:48:33;100401.75;;;17.09;46.78
40372;BME280;28564;53.346;-6.554;2022-08-19T04:51:05;100398.95;;;17.14;46.78
40372;BME280;28564;53.346;-6.554;2022-08-19T04:53:34;100402.27;;;17.21;46.77
40372;BME280;28564;53.346;-6.554;2022-08-19T04:56:05;100402.00;;;17.29;46.69
40372;BME280;28564;53.346;-6.554;2022-08-19T04:58:33;100403.11;;;17.12;46.45
40372;BME280;28564;53.346;-6.554;2022-08-19T05:01:01;100402.08;;;17.33;46.50
40372;BME280;28564;53.346;-6.554;2022-08-19T05:03:28;100404.79;;;17.52;46.36
40372;BME280;28564;53.346;-6.554;2022-08-19T05:05:55;100414.01;;;17.18;46.35
40372;BME280;28564;53.346;-6.554;2022-08-19T05:08:22;100423.64;;;17.29;46.49
40372;BME280;28564;53.346;-6.554;2022-08-19T05:10:51;100424.70;;;17.02;46.59
40372;BME280;28564;53.346;-6.554;2022-08-19T05:13:19;100421.44;;;16.91;46.73
40372;BME280;28564;53.346;-6.554;2022-08-19T05:15:54;100422.90;;;17.03;46.96
40372;BME280;28564;53.346;-6.554;2022-08-19T05:18:23;100423.83;;;16.94;47.10
40372;BME280;28564;53.346;-6.554;2022-08-19T05:20:50;100420.04;;;16.97;47.01
40372;BME280;28564;53.346;-6.554;2022-08-19T05:23:18;100416.51;;;16.77;47.01
40372;BME280;28564;53.346;-6.554;2022-08-19T05:25:44;100423.00;;;16.70;47.18
40372;BME280;28564;53.346;-6.554;2022-08-19T05:28:12;100419.99;;;16.63;47.25
40372;BME280;28564;53.346;-6.554;2022-08-19T05:30:39;100422.35;;;16.82;47.23
40372;BME280;28564;53.346;-6.554;2022-08-19T05:33:06;100426.66;;;16.80;47.23
40372;BME280;28564;53.346;-6.554;2022-08-19T05:35:35;100421.70;;;16.56;47.31
40372;BME280;28564;53.346;-6.554;2022-08-19T05:38:03;100425.24;;;16.76;47.32
40372;BME280;28564;53.346;-6.554;2022-08-19T05:40:36;100423.94;;;16.75;47.37
40372;BME280;28564;53.346;-6.554;2022-08-19T05:43:04;100425.35;;;16.75;47.45
40372;BME280;28564;53.346;-6.554;2022-08-19T05:45:32;100427.17;;;16.68;47.71
40372;BME280;28564;53.346;-6.554;2022-08-19T05:48:00;100428.90;;;16.71;47.94
40372;BME280;28564;53.346;-6.554;2022-08-19T05:50:27;100432.86;;;16.60;48.01
40372;BME280;28564;53.346;-6.554;2022-08-19T05:52:54;100432.56;;;16.94;48.05
40372;BME280;28564;53.346;-6.554;2022-08-19T05:55:22;100437.22;;;17.14;47.81
40372;BME280;28564;53.346;-6.554;2022-08-19T05:57:49;100440.62;;;17.09;47.65
40372;BME280;28564;53.346;-6.554;2022-08-19T06:00:16;100445.01;;;17.27;47.47
40372;BME280;28564;53.346;-6.554;2022-08-19T06:02:43;100444.18;;;17.44;47.10
40372;BME280;28564;53.346;-6.554;2022-08-19T06:05:10;100452.02;;;17.31;47.05
40372;BME280;28564;53.346;-6.554;2022-08-19T06:07:39;100459.09;;;17.65;46.77
40372;BME280;28564;53.346;-6.554;2022-08-19T06:10:09;100463.55;;;17.64;46.69
40372;BME280;28564;53.346;-6.554;2022-08-19T06:12:37;100464.20;;;17.58;46.78
40372;BME280;28564;53.346;-6.554;2022-08-19T06:15:08;100470.12;;;17.56;46.72
40372;BME280;28564;53.346;-6.554;2022-08-19T06:17:36;100472.81;;;17.33;46.77
40372;BME280;28564;53.346;-6.554;2022-08-19T06:20:05;100474.85;;;17.31;46.83
40372;BME280;28564;53.346;-6.554;2022-08-19T06:22:37;100474.69;;;17.50;46.90
40372;BME280;28564;53.346;-6.554;2022-08-19T06:25:05;100475.89;;;17.45;47.01
40372;BME280;28564;53.346;-6.554;2022-08-19T06:27:32;100477.19;;;17.51;47.02
40372;BME280;28564;53.346;-6.554;2022-08-19T06:30:00;100474.43;;;17.51;46.95
40372;BME280;28564;53.346;-6.554;2022-08-19T06:32:27;100473.99;;;17.52;47.04
40372;BME280;28564;53.346;-6.554;2022-08-19T06:34:54;100472.04;;;17.52;47.19
40372;BME280;28564;53.346;-6.554;2022-08-19T06:37:22;100473.36;;;17.67;46.95
40372;BME280;28564;53.346;-6.554;2022-08-19T06:39:49;100474.82;;;17.40;47.08
40372;BME280;28564;53.346;-6.554;2022-08-19T06:42:16;100471.61;;;17.72;47.04
40372;BME280;28564;53.346;-6.554;2022-08-19T06:44:44;100472.13;;;17.55;47.28
40372;BME280;28564;53.346;-6.554;2022-08-19T06:47:15;100475.84;;;17.70;46.88
40372;BME280;28564;53.346;-6.554;2022-08-19T06:49:44;100478.18;;;18.06;46.62
40372;BME280;28564;53.346;-6.554;2022-08-19T06:52:11;100480.03;;;18.23;46.69
40372;BME280;28564;53.346;-6.554;2022-08-19T06:54:39;100481.23;;;18.03;46.37
40372;BME280;28564;53.346;-6.554;2022-08-19T06:57:07;100490.38;;;18.51;45.82
40372;BME280;28564;53.346;-6.554;2022-08-19T06:59:35;100499.38;;;18.71;45.47
40372;BME280;28564;53.346;-6.554;2022-08-19T07:02:04;100499.26;;;18.80;45.61
40372;BME280;28564;53.346;-6.554;2022-08-19T07:04:36;100497.81;;;18.62;46.80
40372;BME280;28564;53.346;-6.554;2022-08-19T07:07:06;100494.81;;;18.45;47.15
40372;BME280;28564;53.346;-6.554;2022-08-19T07:09:36;100490.01;;;18.35;47.55
40372;BME280;28564;53.346;-6.554;2022-08-19T07:12:06;100492.83;;;18.45;47.68
40372;BME280;28564;53.346;-6.554;2022-08-19T07:14:35;100494.77;;;18.60;47.36
40372;BME280;28564;53.346;-6.554;2022-08-19T07:17:05;100491.11;;;18.56;47.58
40372;BME280;28564;53.346;-6.554;2022-08-19T07:19:34;100491.12;;;18.67;47.29
40372;BME280;28564;53.346;-6.554;2022-08-19T07:22:04;100490.65;;;18.54;47.14
40372;BME280;28564;53.346;-6.554;2022-08-19T07:24:32;100494.68;;;18.70;46.79
40372;BME280;28564;53.346;-6.554;2022-08-19T07:27:02;100491.38;;;18.88;46.27
40372;BME280;28564;53.346;-6.554;2022-08-19T07:29:32;100489.71;;;18.81;46.37
40372;BME280;28564;53.346;-6.554;2022-08-19T07:32:03;100492.38;;;18.61;46.61
40372;BME280;28564;53.346;-6.554;2022-08-19T07:34:31;100491.85;;;18.48;46.83
40372;BME280;28564;53.346;-6.554;2022-08-19T07:36:58;100493.33;;;18.43;46.92
40372;BME280;28564;53.346;-6.554;2022-08-19T07:39:28;100496.82;;;18.39;46.96
40372;BME280;28564;53.346;-6.554;2022-08-19T07:42:41;100505.45;;;18.29;47.27
40372;BME280;28564;53.346;-6.554;2022-08-19T07:45:09;100518.44;;;18.33;47.40
40372;BME280;28564;53.346;-6.554;2022-08-19T07:47:36;100521.91;;;18.43;47.38
40372;BME280;28564;53.346;-6.554;2022-08-19T07:50:07;100528.85;;;18.54;47.55
40372;BME280;28564;53.346;-6.554;2022-08-19T07:52:35;100526.56;;;18.66;47.48
40372;BME280;28564;53.346;-6.554;2022-08-19T07:55:05;100529.35;;;18.61;47.28
40372;BME280;28564;53.346;-6.554;2022-08-19T07:57:32;100530.06;;;19.18;46.89
40372;BME280;28564;53.346;-6.554;2022-08-19T07:59:59;100532.11;;;19.32;46.33
40372;BME280;28564;53.346;-6.554;2022-08-19T08:02:26;100524.77;;;19.65;45.10
40372;BME280;28564;53.346;-6.554;2022-08-19T08:04:54;100524.18;;;19.66;44.70
40372;BME280;28564;53.346;-6.554;2022-08-19T08:07:22;100526.41;;;19.92;43.80
40372;BME280;28564;53.346;-6.554;2022-08-19T08:09:49;100524.23;;;19.82;43.99
40372;BME280;28564;53.346;-6.554;2022-08-19T08:12:21;100520.50;;;20.23;43.19
40372;BME280;28564;53.346;-6.554;2022-08-19T08:14:50;100527.90;;;20.00;42.57
40372;BME280;28564;53.346;-6.554;2022-08-19T08:17:20;100530.54;;;20.16;41.65
40372;BME280;28564;53.346;-6.554;2022-08-19T08:19:49;100526.84;;;20.20;41.82
40372;BME280;28564;53.346;-6.554;2022-08-19T08:22:18;100536.08;;;20.66;41.38
40372;BME280;28564;53.346;-6.554;2022-08-19T08:24:46;100532.97;;;20.57;41.16
40372;BME280;28564;53.346;-6.554;2022-08-19T08:27:14;100528.40;;;20.64;41.10
40372;BME280;28564;53.346;-6.554;2022-08-19T08:29:41;100558.99;;;20.61;40.90
40372;BME280;28564;53.346;-6.554;2022-08-19T08:32:13;100536.61;;;20.68;40.27
40372;BME280;28564;53.346;-6.554;2022-08-19T08:34:41;100540.20;;;20.61;40.73
40372;BME280;28564;53.346;-6.554;2022-08-19T08:37:08;100535.25;;;20.85;40.79
40372;BME280;28564;53.346;-6.554;2022-08-19T08:39:35;100540.85;;;21.25;40.28
40372;BME280;28564;53.346;-6.554;2022-08-19T08:42:08;100541.65;;;20.82;39.90
40372;BME280;28564;53.346;-6.554;2022-08-19T08:44:44;100538.07;;;21.03;39.57
40372;BME280;28564;53.346;-6.554;2022-08-19T08:47:16;100534.00;;;20.86;39.88
40372;BME280;28564;53.346;-6.554;2022-08-19T08:49:50;100534.32;;;20.54;40.05
40372;BME280;28564;53.346;-6.554;2022-08-19T08:52:24;100537.03;;;20.46;40.69
40372;BME280;28564;53.346;-6.554;2022-08-19T08:54:54;100544.48;;;20.11;40.72
40372;BME280;28564;53.346;-6.554;2022-08-19T08:57:27;100536.79;;;20.25;40.81
40372;BME280;28564;53.346;-6.554;2022-08-19T08:59:57;100536.69;;;20.43;40.93
40372;BME280;28564;53.346;-6.554;2022-08-19T09:03:52;100537.16;;;20.78;39.61
40372;BME280;28564;53.346;-6.554;2022-08-19T09:06:25;100538.45;;;21.34;39.55
40372;BME280;28564;53.346;-6.554;2022-08-19T09:10:25;100538.65;;;21.53;38.36
40372;BME280;28564;53.346;-6.554;2022-08-19T09:13:03;100535.39;;;21.86;38.20
40372;BME280;28564;53.346;-6.554;2022-08-19T09:15:47;100538.13;;;21.90;37.76
40372;BME280;28564;53.346;-6.554;2022-08-19T09:18:16;100538.99;;;22.36;37.68
40372;BME280;28564;53.346;-6.554;2022-08-19T09:20:43;100534.30;;;22.19;37.57
40372;BME280;28564;53.346;-6.554;2022-08-19T09:23:10;100539.41;;;22.05;37.21
40372;BME280;28564;53.346;-6.554;2022-08-19T09:25:37;100538.50;;;22.06;36.71
40372;BME280;28564;53.346;-6.554;2022-08-19T09:28:04;100533.89;;;22.02;36.71
40372;BME280;28564;53.346;-6.554;2022-08-19T09:30:40;100547.01;;;22.39;36.21
40372;BME280;28564;53.346;-6.554;2022-08-19T09:33:08;100533.79;;;21.99;35.65
40372;BME280;28564;53.346;-6.554;2022-08-19T09:35:35;100532.58;;;22.55;35.94
40372;BME280;28564;53.346;-6.554;2022-08-19T09:38:03;100534.80;;;22.81;36.11
40372;BME280;28564;53.346;-6.554;2022-08-19T09:40:31;100536.98;;;22.73;35.85
40372;BME280;28564;53.346;-6.554;2022-08-19T09:42:59;100534.09;;;22.74;35.07
40372;BME280;28564;53.346;-6.554;2022-08-19T09:45:29;100541.75;;;22.79;35.07
40372;BME280;28564;53.346;-6.554;2022-08-19T09:47:57;100539.90;;;22.42;35.33
40372;BME280;28564;53.346;-6.554;2022-08-19T09:50:24;100537.19;;;22.58;35.36
40372;BME280;28564;53.346;-6.554;2022-08-19T09:52:52;100540.45;;;22.56;35.58
40372;BME280;28564;53.346;-6.554;2022-08-19T09:55:19;100544.46;;;22.91;35.60
40372;BME280;28564;53.346;-6.554;2022-08-19T09:57:46;100544.23;;;22.54;35.74
40372;BME280;28564;53.346;-6.554;2022-08-19T10:00:13;100537.65;;;22.62;35.76
40372;BME280;28564;53.346;-6.554;2022-08-19T10:02:41;100534.56;;;22.56;35.73
40372;BME280;28564;53.346;-6.554;2022-08-19T10:05:08;100537.99;;;22.70;35.69
40372;BME280;28564;53.346;-6.554;2022-08-19T10:07:36;100559.76;;;22.29;36.34
40372;BME280;28564;53.346;-6.554;2022-08-19T10:10:06;100546.10;;;21.91;37.89
40372;BME280;28564;53.346;-6.554;2022-08-19T10:12:34;100555.65;;;21.54;38.83
40372;BME280;28564;53.346;-6.554;2022-08-19T10:15:02;100550.14;;;21.30;39.74
40372;BME280;28564;53.346;-6.554;2022-08-19T10:17:29;100544.01;;;21.43;40.53
40372;BME280;28564;53.346;-6.554;2022-08-19T10:19:57;100540.44;;;21.36;40.50
40372;BME280;28564;53.346;-6.554;2022-08-19T10:22:24;100537.13;;;21.39;40.40
40372;BME280;28564;53.346;-6.554;2022-08-19T10:24:52;100536.41;;;21.93;39.89
40372;BME280;28564;53.346;-6.554;2022-08-19T10:27:19;100529.20;;;21.85;39.59
40372;BME280;28564;53.346;-6.554;2022-08-19T10:29:46;100533.93;;;21.95;39.88
40372;BME280;28564;53.346;-6.554;2022-08-19T10:32:13;100536.23;;;21.93;38.52
40372;BME280;28564;53.346;-6.554;2022-08-19T10:34:40;100537.02;;;22.22;37.14
40372;BME280;28564;53.346;-6.554;2022-08-19T10:37:07;100543.45;;;22.12;36.89
40372;BME280;28564;53.346;-6.554;2022-08-19T10:39:36;100538.13;;;22.34;36.54
40372;BME280;28564;53.346;-6.554;2022-08-19T10:42:06;100541.38;;;22.34;36.46
40372;BME280;28564;53.346;-6.554;2022-08-19T10:44:34;100533.43;;;22.97;36.09
40372;BME280;28564;53.346;-6.554;2022-08-19T10:47:02;100536.90;;;22.73;35.95
40372;BME280;28564;53.346;-6.554;2022-08-19T10:49:30;100539.39;;;22.98;35.25
40372;BME280;28564;53.346;-6.554;2022-08-19T10:51:58;100532.85;;;22.95;34.64
40372;BME280;28564;53.346;-6.554;2022-08-19T10:54:25;100539.06;;;23.12;34.82
40372;BME280;28564;53.346;-6.554;2022-08-19T10:56:52;100533.42;;;23.12;35.21
40372;BME280;28564;53.346;-6.554;2022-08-19T10:59:22;100533.43;;;23.14;35.31
40372;BME280;28564;53.346;-6.554;2022-08-19T11:01:50;100528.39;;;23.44;34.52
40372;BME280;28564;53.346;-6.554;2022-08-19T11:04:18;100528.38;;;23.39;34.70
40372;BME280;28564;53.346;-6.554;2022-08-19T11:06:47;100526.10;;;23.73;34.23
40372;BME280;28564;53.346;-6.554;2022-08-19T11:09:17;100522.65;;;23.44;33.95
40372;BME280;28564;53.346;-6.554;2022-08-19T11:11:45;100521.65;;;23.88;34.04
40372;BME280;28564;53.346;-6.554;2022-08-19T11:14:15;100524.56;;;23.65;34.19
40372;BME280;28564;53.346;-6.554;2022-08-19T11:16:44;100527.46;;;23.88;33.62
40372;BME280;28564;53.346;-6.554;2022-08-19T11:19:12;100533.03;;;24.16;33.33
40372;BME280;28564;53.346;-6.554;2022-08-19T11:21:42;100526.59;;;23.98;33.17
40372;BME280;28564;53.346;-6.554;2022-08-19T11:24:12;100528.81;;;24.01;33.32
40372;BME280;28564;53.346;-6.554;2022-08-19T11:26:41;100532.03;;;23.95;33.17
40372;BME280;28564;53.346;-6.554;2022-08-19T11:29:11;100532.15;;;24.05;32.95
40372;BME280;28564;53.346;-6.554;2022-08-19T11:31:41;100531.80;;;23.98;32.96
40372;BME280;28564;53.346;-6.554;2022-08-19T11:34:11;100530.58;;;23.86;33.36
40372;BME280;28564;53.346;-6.554;2022-08-19T11:36:42;100523.15;;;23.96;33.61
40372;BME280;28564;53.346;-6.554;2022-08-19T11:39:12;100526.84;;;24.01;33.98
40372;BME280;28564;53.346;-6.554;2022-08-19T11:41:40;100535.11;;;24.05;32.97
40372;BME280;28564;53.346;-6.554;2022-08-19T11:44:08;100555.19;;;24.02;32.69
40372;BME280;28564;53.346;-6.554;2022-08-19T11:46:36;100524.91;;;24.12;32.31
40372;BME280;28564;53.346;-6.554;2022-08-19T11:49:09;100522.53;;;24.15;32.43
40372;BME280;28564;53.346;-6.554;2022-08-19T11:51:36;100511.43;;;23.89;33.15
40372;BME280;28564;53.346;-6.554;2022-08-19T11:54:05;100509.37;;;24.28;33.16
40372;BME280;28564;53.346;-6.554;2022-08-19T11:56:32;100516.75;;;24.91;32.24
40372;BME280;28564;53.346;-6.554;2022-08-19T11:59:00;100514.68;;;24.94;32.18
40372;BME280;28564;53.346;-6.554;2022-08-19T12:01:29;100509.61;;;25.26;31.84
40372;BME280;28564;53.346;-6.554;2022-08-19T12:03:56;100506.24;;;25.17;31.07
40372;BME280;28564;53.346;-6.554;2022-08-19T12:06:27;100509.31;;;24.96;30.89
